Time;durP1;ratioP1;P1;durP2;ratioP2;P2;SDS_P1;SDS_P2;PMS_P1;PMS_P2;Temp;Humidity;BMP_temperature;BMP_pressure;BME280_temperature;BME280_humidity;BME280_pressure;Samples;Min_cycle;Max_cycle;Signal;HPM_P1;HPM_P2
2023/06/07 00:01:07;;;;;;;3.78;3.47;;;26.90;44.00;27.80;101055.00;;;;5008472;28;20196;-59
2023/06/07 00:03:33;;;;;;;3.72;3.42;;;26.90;44.00;27.80;101047.00;;;;5007324;28;20237;-57
2023/06/07 00:06:03;;;;;;;3.72;3.42;;;26.80;44.00;27.80;101059.00;;;;5008601;28;20176;-57
2023/06/07 00:08:29;;;;;;;4.20;3.70;;;26.80;44.10;27.70;101051.00;;;;5008270;28;20171;-58
2023/06/07 00:10:56;;;;;;;3.63;3.33;;;26.80;44.10;27.70;101054.00;;;;5007536;28;20223;-58
2023/06/07 00:13:22;;;;;;;4.00;3.70;;;26.80;44.10;27.70;101059.00;;;;5008170;28;20222;-57
2023/06/07 00:15:47;;;;;;;3.85;3.55;;;26.80;44.90;27.70;101062.00;;;;5008152;28;20168;-57
2023/06/07 00:18:15;;;;;;;3.92;3.63;;;26.80;44.20;27.70;101061.00;;;;5008091;28;20259;-58
2023/06/07 00:20:45;;;;;;;3.90;3.50;;;26.80;44.20;27.70;101065.00;;;;5008112;28;20223;-57
2023/06/07 00:23:14;;;;;;;3.92;3.63;;;26.80;44.30;27.50;101064.00;;;;5008539;28;20407;-58
2023/06/07 00:25:40;;;;;;;3.40;3.20;;;26.80;44.20;27.60;101067.00;;;;5008327;28;20199;-57
2023/06/07 00:28:06;;;;;;;3.47;3.28;;;26.80;44.30;27.60;101073.00;;;;5008511;28;20251;-57
2023/06/07 00:30:31;;;;;;;3.70;3.40;;;26.80;44.40;27.60;101069.00;;;;5008166;28;20205;-59
2023/06/07 00:32:57;;;;;;;3.88;3.58;;;26.80;44.40;27.60;101065.00;;;;5008395;28;20180;-59
2023/06/07 00:35:23;;;;;;;4.10;3.80;;;26.80;44.40;27.50;101067.00;;;;5008347;28;20219;-59
2023/06/07 00:37:49;;;;;;;3.88;3.55;;;26.70;44.40;27.50;101069.00;;;;5008333;28;20191;-60
2023/06/07 00:40:14;;;;;;;3.75;3.45;;;26.70;44.40;27.50;101069.00;;;;5008468;28;20191;-59
2023/06/07 00:42:40;;;;;;;3.80;3.50;;;26.70;44.50;27.50;101066.00;;;;5008353;28;20176;-59
2023/06/07 00:45:07;;;;;;;3.83;3.53;;;26.70;44.50;27.50;101069.00;;;;5008036;28;20655;-58
2023/06/07 00:47:33;;;;;;;3.85;3.55;;;26.70;44.50;27.40;101068.00;;;;5008201;28;20199;-58
2023/06/07 00:49:59;;;;;;;3.85;3.55;;;26.70;44.50;27.40;101074.00;;;;4990807;28;20207;-58
2023/06/07 00:52:25;;;;;;;3.70;3.40;;;26.70;44.60;27.40;101079.00;;;;5008280;28;20183;-59
2023/06/07 00:54:51;;;;;;;4.15;3.67;;;26.70;44.60;27.40;101073.00;;;;4990629;28;20199;-59
2023/06/07 00:57:17;;;;;;;3.75;3.45;;;26.70;44.60;27.40;101071.00;;;;5007212;28;20646;-59
2023/06/07 00:59:42;;;;;;;4.22;3.92;;;26.60;44.60;27.40;101077.00;;;;5006880;28;20180;-58
2023/06/07 01:02:08;;;;;;;3.80;3.47;;;26.60;44.60;27.40;101084.00;;;;4998543;28;20187;-59
2023/06/07 01:04:40;;;;;;;3.70;3.40;;;26.60;44.70;27.30;101061.00;;;;5014117;28;20231;-58
2023/06/07 01:07:07;;;;;;;3.90;3.60;;;26.60;45.20;27.30;101067.00;;;;5009033;28;20186;-59
2023/06/07 01:09:33;;;;;;;3.75;3.45;;;26.60;44.60;27.30;101066.00;;;;5008397;28;20727;-61
2023/06/07 01:11:59;;;;;;;3.47;3.25;;;26.60;44.60;27.30;101069.00;;;;4991480;28;20250;-57
2023/06/07 01:14:24;;;;;;;3.92;3.63;;;26.60;44.70;27.30;101066.00;;;;4974881;28;20199;-57
2023/06/07 01:16:52;;;;;;;3.80;3.50;;;26.60;44.60;27.20;101000.00;;;;5012877;28;20271;-57
2023/06/07 01:19:22;;;;;;;3.80;3.50;;;26.50;44.60;27.20;101066.00;;;;4999330;28;20180;-58
2023/06/07 01:21:51;;;;;;;3.42;3.22;;;26.50;44.60;27.20;101063.00;;;;4993706;28;20196;-57
2023/06/07 01:24:18;;;;;;;3.65;3.45;;;26.50;44.80;27.20;101065.00;;;;5010231;28;20211;-59
2023/06/07 01:26:45;;;;;;;4.25;3.85;;;26.50;44.70;27.20;101062.00;;;;5011605;28;20500;-58
2023/06/07 01:29:12;;;;;;;3.63;3.40;;;26.50;44.70;27.20;101058.00;;;;5010596;28;20172;-58
2023/06/07 01:31:37;;;;;;;3.75;3.45;;;26.40;44.70;27.10;101053.00;;;;4994010;28;20187;-58
2023/06/07 01:34:04;;;;;;;3.72;3.42;;;26.50;44.80;27.10;101050.00;;;;4993570;28;20326;-57
2023/06/07 01:36:31;;;;;;;4.03;3.70;;;26.40;44.80;27.10;101054.00;;;;5009911;28;20274;-57
2023/06/07 01:38:57;;;;;;;4.00;3.70;;;26.40;44.80;27.10;101048.00;;;;5011405;28;20176;-57
2023/06/07 01:41:25;;;;;;;3.67;3.38;;;26.40;44.80;27.10;101053.00;;;;4993389;28;20661;-56
2023/06/07 01:43:50;;;;;;;3.63;3.33;;;26.40;44.80;27.10;101028.00;;;;4993913;28;20180;-58
2023/06/07 01:46:16;;;;;;;3.83;3.50;;;26.40;44.80;27.10;101043.00;;;;5009070;28;20253;-58
2023/06/07 01:48:42;;;;;;;3.58;3.30;;;26.40;44.90;27.10;101044.00;;;;5009540;28;20182;-59
2023/06/07 01:51:08;;;;;;;3.75;3.45;;;26.30;44.90;27.00;101045.00;;;;5010639;28;20211;-58
2023/06/07 01:53:34;;;;;;;3.72;3.42;;;26.30;44.80;27.00;101038.00;;;;5010427;28;20211;-57
2023/06/07 01:56:32;;;;;;;3.90;3.60;;;26.30;44.90;27.00;101043.00;;;;4993018;28;20193;-58
2023/06/07 01:59:14;;;;;;;3.72;3.42;;;26.30;45.00;27.00;101035.00;;;;4993560;28;20215;-58
2023/06/07 02:01:52;;;;;;;3.47;3.17;;;26.30;44.90;27.00;101042.00;;;;5001241;28;20290;-59
2023/06/07 02:04:19;;;;;;;3.63;3.33;;;26.30;44.90;26.90;101042.00;;;;5009012;28;20176;-58
2023/06/07 02:06:45;;;;;;;3.88;3.58;;;26.30;45.10;26.90;101034.00;;;;4993169;28;20525;-58
2023/06/07 02:09:12;;;;;;;3.85;3.55;;;26.30;45.10;26.90;101041.00;;;;5010299;28;20183;-59
2023/06/07 02:11:38;;;;;;;3.50;3.30;;;26.30;45.10;26.90;101031.00;;;;4976289;28;20222;-59
2023/06/07 02:14:05;;;;;;;3.70;3.40;;;26.20;44.90;26.90;101038.00;;;;5008737;28;20283;-59
2023/06/07 02:16:35;;;;;;;3.70;3.40;;;26.20;45.00;26.90;101031.00;;;;5008622;28;20738;-58
2023/06/07 02:19:06;;;;;;;3.70;3.40;;;26.20;45.00;26.90;101031.00;;;;5011236;28;20727;-58
2023/06/07 02:21:36;;;;;;;3.85;3.55;;;26.20;45.00;26.90;101029.00;;;;5010633;28;20198;-60
2023/06/07 02:24:03;;;;;;;3.70;3.40;;;26.20;45.00;26.90;101029.00;;;;5010741;28;20222;-58
2023/06/07 02:26:29;;;;;;;3.72;3.42;;;26.20;45.90;26.80;101025.00;;;;5009998;28;20183;-59
2023/06/07 02:28:55;;;;;;;3.65;3.35;;;26.20;45.10;26.80;101021.00;;;;5010368;28;20168;-59
2023/06/07 02:31:20;;;;;;;3.55;3.25;;;26.20;45.10;26.80;101022.00;;;;5009927;28;20267;-58
2023/06/07 02:33:49;;;;;;;3.72;3.42;;;26.10;45.00;26.80;101021.00;;;;5009105;28;20642;-58
2023/06/07 02:36:15;;;;;;;3.90;3.50;;;26.10;45.10;26.80;101032.00;;;;5009436;28;20520;-58
2023/06/07 02:38:41;;;;;;;3.60;3.40;;;26.10;45.00;26.80;101025.00;;;;5009693;28;20168;-57
2023/06/07 02:41:07;;;;;;;3.60;3.30;;;26.10;45.10;26.80;101023.00;;;;5009692;28;20204;-57
2023/06/07 02:43:33;;;;;;;3.78;3.47;;;26.10;45.10;26.80;101021.00;;;;5009867;28;20176;-57
2023/06/07 02:45:58;;;;;;;3.78;3.47;;;26.10;45.00;26.80;101027.00;;;;5009558;28;20171;-57
2023/06/07 02:48:24;;;;;;;3.70;3.40;;;26.10;45.00;26.70;101020.00;;;;5009294;28;20670;-57
2023/06/07 02:50:50;;;;;;;3.75;3.45;;;26.10;45.10;26.70;101020.00;;;;5009411;28;20215;-57
2023/06/07 02:53:15;;;;;;;3.80;3.40;;;26.10;45.10;26.70;101015.00;;;;5009547;28;20175;-57
2023/06/07 02:55:41;;;;;;;3.67;3.38;;;26.00;45.10;26.70;101020.00;;;;5010481;28;20175;-56
2023/06/07 02:58:07;;;;;;;3.80;3.50;;;26.00;45.00;26.70;101023.00;;;;5011030;28;20179;-58
2023/06/07 03:00:33;;;;;;;3.80;3.50;;;26.00;45.10;26.70;101025.00;;;;5010499;28;20295;-58
2023/06/07 03:02:59;;;;;;;3.60;3.38;;;26.00;45.10;26.70;101030.00;;;;5009591;28;20180;-56
2023/06/07 03:05:28;;;;;;;3.72;3.42;;;26.00;45.10;26.70;101021.00;;;;5009403;28;20327;-56
2023/06/07 03:07:56;;;;;;;3.95;3.65;;;26.00;45.10;26.60;101021.00;;;;5010550;28;20686;-59
2023/06/07 03:10:22;;;;;;;4.10;3.80;;;26.00;45.10;26.60;101022.00;;;;5025118;28;20191;-59
2023/06/07 03:12:48;;;;;;;3.70;3.40;;;26.00;45.20;26.60;101017.00;;;;5019643;28;20297;-57
2023/06/07 03:15:13;;;;;;;3.80;3.50;;;26.00;45.20;26.60;101017.00;;;;5013486;28;20254;-58
2023/06/07 03:17:41;;;;;;;3.83;3.53;;;26.00;45.20;26.60;101021.00;;;;5010336;28;20631;-57
2023/06/07 03:20:08;;;;;;;3.70;3.40;;;26.00;45.20;26.60;101019.00;;;;5010328;28;20191;-58
2023/06/07 03:22:36;;;;;;;4.07;3.78;;;26.00;45.30;26.60;101015.00;;;;5009891;28;20563;-57
2023/06/07 03:25:02;;;;;;;3.60;3.40;;;25.90;45.20;26.60;101015.00;;;;5019716;28;20222;-59
2023/06/07 03:27:29;;;;;;;3.88;3.58;;;25.90;45.20;26.60;101018.00;;;;5014954;28;20185;-56
2023/06/07 03:29:55;;;;;;;3.95;3.63;;;25.90;45.30;26.60;101014.00;;;;5010193;28;20175;-58
2023/06/07 03:32:20;;;;;;;3.50;3.30;;;25.90;45.30;26.50;101020.00;;;;5009233;28;20179;-57
2023/06/07 03:34:46;;;;;;;3.40;3.20;;;25.90;45.30;26.50;101026.00;;;;5008880;28;20555;-57
2023/06/07 03:37:12;;;;;;;3.70;3.40;;;25.90;45.30;26.50;101026.00;;;;5007787;28;20180;-58
2023/06/07 03:39:38;;;;;;;3.88;3.45;;;25.90;45.30;26.50;101026.00;;;;5008781;28;20179;-58
2023/06/07 03:42:05;;;;;;;3.80;3.50;;;25.90;45.30;26.50;101031.00;;;;5008870;28;20196;-58
2023/06/07 03:44:30;;;;;;;3.90;3.60;;;25.90;45.30;26.50;101033.00;;;;5007789;28;20215;-57
2023/06/07 03:46:56;;;;;;;3.97;3.67;;;25.90;45.40;26.50;101036.00;;;;5009570;28;20199;-57
2023/06/07 03:49:22;;;;;;;3.80;3.50;;;25.90;45.40;26.50;101032.00;;;;5009784;28;20234;-58
2023/06/07 03:51:49;;;;;;;3.70;3.40;;;25.80;45.30;26.50;101029.00;;;;5010112;28;20219;-58
2023/06/07 03:54:15;;;;;;;3.78;3.47;;;25.80;45.40;26.50;101031.00;;;;5009897;28;20191;-57
2023/06/07 03:56:41;;;;;;;3.72;3.42;;;25.80;45.40;26.50;101036.00;;;;5009940;28;20172;-58
2023/06/07 03:59:07;;;;;;;3.97;3.67;;;25.80;45.40;26.40;101035.00;;;;5010215;28;20167;-57
2023/06/07 04:01:32;;;;;;;3.67;3.38;;;25.80;45.40;26.40;101034.00;;;;5009675;28;20705;-57
2023/06/07 04:03:58;;;;;;;3.67;3.40;;;25.80;45.40;26.40;101029.00;;;;5009812;28;20207;-58
2023/06/07 04:06:24;;;;;;;3.90;3.60;;;25.80;45.50;26.40;101027.00;;;;5008505;28;20210;-58
2023/06/07 04:08:56;;;;;;;4.30;3.72;;;25.80;45.50;26.40;101032.00;;;;5009820;28;20552;-58
2023/06/07 04:11:23;;;;;;;4.18;3.80;;;25.80;45.50;26.40;101036.00;;;;5009730;28;20214;-58
2023/06/07 04:13:48;;;;;;;3.85;3.47;;;25.80;45.50;26.40;101030.00;;;;5009541;28;20231;-57
2023/06/07 04:16:14;;;;;;;3.65;3.40;;;25.80;45.50;26.40;101036.00;;;;5009171;28;20275;-57
2023/06/07 04:18:40;;;;;;;3.90;3.60;;;25.80;45.50;26.40;101029.00;;;;5009915;28;20466;-59
2023/06/07 04:21:06;;;;;;;3.85;3.55;;;25.80;45.60;26.30;101023.00;;;;5009831;28;20253;-58
2023/06/07 04:23:32;;;;;;;3.60;3.40;;;25.80;45.60;26.30;101026.00;;;;5009606;28;20179;-59
2023/06/07 04:25:58;;;;;;;4.15;3.75;;;25.70;45.50;26.30;101032.00;;;;5009493;28;20179;-58
2023/06/07 04:28:24;;;;;;;3.80;3.50;;;25.70;45.50;26.30;101030.00;;;;5009561;28;20558;-59
2023/06/07 04:30:51;;;;;;;3.63;3.33;;;25.70;45.50;26.30;101034.00;;;;5009767;28;20203;-57
2023/06/07 04:33:19;;;;;;;3.60;3.30;;;25.70;45.60;26.30;101030.00;;;;5009999;28;20183;-58
2023/06/07 04:35:44;;;;;;;3.75;3.45;;;25.70;45.60;26.30;101034.00;;;;5009761;28;20407;-58
2023/06/07 04:38:23;;;;;;;3.92;3.63;;;25.70;45.60;26.30;101032.00;;;;5009860;28;20178;-58
2023/06/07 04:40:50;;;;;;;4.00;3.63;;;25.70;45.70;26.30;101027.00;;;;5009885;28;20202;-57
2023/06/07 04:43:19;;;;;;;3.75;3.42;;;25.70;45.70;26.30;101038.00;;;;5009414;28;20591;-57
2023/06/07 04:45:55;;;;;;;4.00;3.70;;;25.60;45.70;26.30;101031.00;;;;5009893;28;20174;-58
2023/06/07 04:48:27;;;;;;;4.13;3.72;;;25.60;45.70;26.20;101028.00;;;;5008816;28;20175;-56
2023/06/07 04:50:56;;;;;;;4.15;3.72;;;25.60;45.80;26.20;101026.00;;;;5009115;28;20203;-57
2023/06/07 04:53:22;;;;;;;4.05;3.72;;;25.60;45.80;26.20;101037.00;;;;5009020;28;20252;-57
2023/06/07 04:55:48;;;;;;;3.78;3.47;;;25.60;45.80;26.20;101032.00;;;;5010065;28;20174;-59
2023/06/07 04:58:18;;;;;;;3.75;3.45;;;25.60;45.80;26.20;101040.00;;;;5013002;28;20180;-58
2023/06/07 05:00:44;;;;;;;4.10;3.42;;;25.60;45.80;26.20;101036.00;;;;5012998;28;20191;-57
2023/06/07 05:03:13;;;;;;;3.97;3.67;;;25.60;45.80;26.20;101044.00;;;;5013037;28;20179;-58
2023/06/07 05:05:40;;;;;;;3.85;3.55;;;25.60;45.80;26.20;101045.00;;;;5013273;28;20187;-57
2023/06/07 05:08:05;;;;;;;4.07;3.78;;;25.60;45.80;26.20;101049.00;;;;5011727;28;20172;-58
2023/06/07 05:10:31;;;;;;;3.72;3.40;;;25.60;45.80;26.20;101050.00;;;;5013191;28;20578;-58
2023/06/07 05:12:57;;;;;;;3.90;3.60;;;25.60;45.80;26.20;101045.00;;;;5013432;28;20168;-57
2023/06/07 05:15:23;;;;;;;3.67;3.38;;;25.50;45.80;26.10;101049.00;;;;5021758;28;20208;-59
2023/06/07 05:17:50;;;;;;;3.90;3.60;;;25.60;45.90;26.10;101046.00;;;;5018758;28;20254;-58
2023/06/07 05:20:16;;;;;;;4.00;3.67;;;25.50;46.00;26.10;101058.00;;;;5013427;28;20198;-58
2023/06/07 05:22:42;;;;;;;3.90;3.60;;;25.50;46.60;26.10;101048.00;;;;5013106;28;20522;-58
2023/06/07 05:25:10;;;;;;;3.95;3.65;;;25.50;46.00;26.10;101047.00;;;;5011789;28;20175;-58
2023/06/07 05:27:37;;;;;;;3.97;3.55;;;25.50;46.00;26.10;101054.00;;;;5013221;28;20210;-59
2023/06/07 05:30:04;;;;;;;3.85;3.55;;;25.50;46.10;26.10;101063.00;;;;5018858;28;20575;-58
2023/06/07 05:32:31;;;;;;;3.60;3.30;;;25.50;46.20;26.10;101054.00;;;;5017438;28;20296;-58
2023/06/07 05:34:57;;;;;;;3.80;3.50;;;25.50;46.10;26.00;101057.00;;;;5011715;28;20659;-58
2023/06/07 05:37:26;;;;;;;4.03;3.72;;;25.50;46.20;26.10;101052.00;;;;5012535;28;20175;-58
2023/06/07 05:39:52;;;;;;;3.80;3.50;;;25.50;46.20;26.00;101056.00;;;;5012419;28;20690;-58
2023/06/07 05:42:18;;;;;;;3.60;3.30;;;25.50;46.20;26.00;101058.00;;;;5012520;28;20207;-57
2023/06/07 05:44:48;;;;;;;3.80;3.45;;;25.50;46.30;26.00;101058.00;;;;5012113;28;20183;-58
2023/06/07 05:47:17;;;;;;;3.90;3.60;;;25.50;46.30;26.00;101062.00;;;;5012253;28;20180;-59
2023/06/07 05:49:46;;;;;;;3.97;3.67;;;25.50;46.40;26.00;101072.00;;;;5012071;28;20266;-58
2023/06/07 05:52:13;;;;;;;3.80;3.50;;;25.50;46.40;26.00;101071.00;;;;5012078;28;20172;-57
2023/06/07 05:54:40;;;;;;;4.07;3.78;;;25.50;46.40;26.00;101071.00;;;;5011984;28;20200;-59
2023/06/07 05:57:06;;;;;;;4.10;3.70;;;25.40;46.30;26.00;101074.00;;;;5011972;28;20187;-58
2023/06/07 05:59:32;;;;;;;3.75;3.45;;;25.40;46.40;26.00;101068.00;;;;5012074;28;20191;-58
2023/06/07 06:01:57;;;;;;;4.00;3.67;;;25.40;46.40;26.00;101075.00;;;;5011880;28;20196;-58
2023/06/07 06:04:24;;;;;;;3.80;3.50;;;25.40;47.10;26.00;101076.00;;;;5011507;28;20265;-58
2023/06/07 06:06:50;;;;;;;3.78;3.45;;;25.40;46.50;26.00;101077.00;;;;5011236;28;20254;-59
2023/06/07 06:09:17;;;;;;;3.88;3.58;;;25.40;46.60;26.00;101085.00;;;;5011386;28;20204;-59
2023/06/07 06:11:43;;;;;;;3.90;3.60;;;25.40;46.60;25.90;101076.00;;;;5011948;28;20195;-58
2023/06/07 06:14:10;;;;;;;4.53;3.30;;;25.40;46.60;25.90;101077.00;;;;5011756;28;20250;-59
2023/06/07 06:16:35;;;;;;;3.70;3.40;;;25.40;46.60;25.90;101083.00;;;;5011724;28;20172;-59
2023/06/07 06:19:01;;;;;;;3.70;3.40;;;25.40;46.60;25.90;101080.00;;;;5012211;28;20179;-57
2023/06/07 06:21:27;;;;;;;3.80;3.50;;;25.30;46.70;25.90;101089.00;;;;5012264;28;20204;-57
2023/06/07 06:23:52;;;;;;;3.92;3.63;;;25.30;46.70;25.90;101077.00;;;;5011902;28;20176;-59
2023/06/07 06:26:18;;;;;;;3.80;3.50;;;25.40;46.70;25.90;101079.00;;;;5011596;28;20630;-58
2023/06/07 06:28:45;;;;;;;3.80;3.50;;;25.30;46.70;25.90;101075.00;;;;5011330;28;20579;-58
2023/06/07 06:31:11;;;;;;;4.00;3.70;;;25.30;46.80;25.90;101065.00;;;;5011583;28;20199;-60
2023/06/07 06:33:36;;;;;;;3.90;3.60;;;25.30;46.70;25.90;101070.00;;;;5009962;28;20218;-60
2023/06/07 06:36:03;;;;;;;3.70;3.40;;;25.30;46.80;25.90;101065.00;;;;5011443;28;20176;-61
2023/06/07 06:38:28;;;;;;;3.83;3.45;;;25.30;46.90;25.90;101069.00;;;;5011366;28;20171;-60
2023/06/07 06:40:54;;;;;;;3.80;3.50;;;25.30;46.90;25.80;101070.00;;;;5011394;28;20245;-59
2023/06/07 06:43:20;;;;;;;3.65;3.42;;;25.30;47.00;25.80;101069.00;;;;5011112;28;20231;-58
2023/06/07 06:45:46;;;;;;;3.97;3.58;;;25.30;46.90;25.80;101079.00;;;;5011247;28;20168;-59
2023/06/07 06:48:12;;;;;;;3.85;3.55;;;25.30;47.00;25.80;101086.00;;;;5011354;28;20171;-59
2023/06/07 06:50:38;;;;;;;3.88;3.50;;;25.30;47.20;25.80;101090.00;;;;5011424;28;20210;-59
2023/06/07 06:53:03;;;;;;;3.72;3.40;;;25.30;47.10;25.80;101093.00;;;;5011009;28;20258;-60
2023/06/07 06:55:30;;;;;;;3.50;3.20;;;25.30;47.40;25.80;101103.00;;;;5010934;28;20242;-58
2023/06/07 06:57:56;;;;;;;3.70;3.40;;;25.30;47.40;25.80;101099.00;;;;5011105;28;20172;-60
2023/06/07 07:00:23;;;;;;;3.70;3.40;;;25.20;47.40;25.90;101103.00;;;;5010645;28;20583;-60
2023/06/07 07:02:49;;;;;;;4.28;3.42;;;25.30;47.60;25.80;101110.00;;;;5010751;28;20183;-61
2023/06/07 07:05:15;;;;;;;3.90;3.60;;;25.30;47.50;25.80;101102.00;;;;5010529;28;20175;-60
2023/06/07 07:07:41;;;;;;;4.68;3.28;;;25.20;47.50;25.80;101116.00;;;;5010741;28;20180;-59
2023/06/07 07:10:07;;;;;;;3.92;3.63;;;25.20;47.60;25.80;101110.00;;;;5010822;28;20196;-59
2023/06/07 07:12:35;;;;;;;3.60;3.30;;;25.20;47.60;25.80;101112.00;;;;5010783;28;20644;-59
2023/06/07 07:15:01;;;;;;;4.20;3.80;;;25.20;47.70;25.80;101108.00;;;;5009869;28;20304;-58
2023/06/07 07:17:26;;;;;;;3.50;3.30;;;25.20;47.80;25.80;101108.00;;;;5010452;28;20262;-60
2023/06/07 07:19:53;;;;;;;4.15;3.72;;;25.20;47.80;25.80;101117.00;;;;5011800;28;20211;-60
2023/06/07 07:22:19;;;;;;;4.47;3.30;;;25.20;48.40;25.80;101118.00;;;;5012818;28;20175;-61
2023/06/07 07:24:45;;;;;;;3.92;3.45;;;25.20;47.80;25.80;101118.00;;;;5009412;28;20484;-60
2023/06/07 07:27:10;;;;;;;3.78;3.47;;;25.20;47.90;25.80;101124.00;;;;5010732;28;20275;-60
2023/06/07 07:29:36;;;;;;;3.88;3.53;;;25.10;47.80;25.80;101128.00;;;;5009359;28;20187;-60
2023/06/07 07:32:02;;;;;;;3.80;3.50;;;25.20;48.00;25.70;101128.00;;;;5010471;28;20204;-60
2023/06/07 07:34:28;;;;;;;3.95;3.65;;;25.20;48.00;25.80;101125.00;;;;5011017;28;20242;-60
2023/06/07 07:36:57;;;;;;;3.60;3.30;;;25.10;47.90;25.80;101132.00;;;;5012889;28;20172;-59
2023/06/07 07:39:25;;;;;;;4.00;3.60;;;25.10;47.80;25.60;101141.00;;;;5010167;28;20175;-60
2023/06/07 07:41:51;;;;;;;3.67;3.38;;;25.10;48.10;25.70;101130.00;;;;5010131;28;20196;-59
2023/06/07 07:44:17;;;;;;;3.35;3.15;;;25.10;47.90;25.70;101144.00;;;;5009899;28;20310;-58
2023/06/07 07:46:43;;;;;;;3.90;3.50;;;25.10;48.10;25.70;101128.00;;;;5009964;28;20334;-60
2023/06/07 07:49:09;;;;;;;3.47;3.17;;;25.10;48.00;25.70;101139.00;;;;5010141;28;20195;-60
2023/06/07 07:51:35;;;;;;;3.42;3.13;;;25.10;48.00;25.70;101127.00;;;;5009557;28;20234;-59
2023/06/07 07:54:01;;;;;;;3.70;3.40;;;25.10;48.10;25.70;101130.00;;;;5010071;28;20207;-58
2023/06/07 07:56:27;;;;;;;3.55;3.25;;;25.10;48.20;25.70;101124.00;;;;5009789;28;20187;-59
2023/06/07 07:58:53;;;;;;;4.15;3.70;;;25.10;48.30;25.70;101130.00;;;;5010180;28;20176;-59
2023/06/07 08:01:19;;;;;;;3.67;3.38;;;25.10;48.20;25.70;101130.00;;;;5010019;28;20195;-58
2023/06/07 08:03:46;;;;;;;3.63;3.30;;;25.10;48.20;25.70;101134.00;;;;5010409;28;20261;-60
2023/06/07 08:06:12;;;;;;;3.72;3.30;;;25.10;48.30;25.70;101131.00;;;;5009801;28;20186;-61
2023/06/07 08:08:37;;;;;;;3.80;3.40;;;25.10;48.30;25.70;101133.00;;;;5009881;28;20183;-58
2023/06/07 08:11:03;;;;;;;3.92;3.50;;;25.10;48.40;25.70;101132.00;;;;5009992;28;20577;-58
2023/06/07 08:13:29;;;;;;;3.97;3.67;;;25.10;48.40;25.70;101126.00;;;;5008446;28;20203;-59
2023/06/07 08:15:55;;;;;;;3.33;3.10;;;25.00;48.30;25.70;101132.00;;;;5009197;28;20172;-58
2023/06/07 08:18:21;;;;;;;3.70;3.40;;;25.00;48.40;25.70;101132.00;;;;4991972;28;20173;-58
2023/06/07 08:20:46;;;;;;;3.90;3.50;;;25.00;48.40;25.70;101130.00;;;;5008343;28;20206;-58
2023/06/07 08:23:12;;;;;;;3.97;3.35;;;25.00;48.40;25.70;101123.00;;;;5009564;28;20180;-58
2023/06/07 08:25:38;;;;;;;4.15;3.60;;;25.00;48.40;25.70;101121.00;;;;5009428;28;20179;-60
2023/06/07 08:28:04;;;;;;;3.72;3.40;;;25.00;48.50;25.70;101133.00;;;;5009537;28;20183;-60
2023/06/07 08:30:31;;;;;;;4.18;3.78;;;25.00;48.60;25.60;101120.00;;;;5010121;28;20197;-60
2023/06/07 08:32:56;;;;;;;3.60;3.30;;;25.00;48.50;25.60;101125.00;;;;5013788;28;20180;-58
2023/06/07 08:35:22;;;;;;;3.63;3.25;;;25.00;48.50;25.60;101121.00;;;;5013071;28;20299;-60
2023/06/07 08:37:48;;;;;;;3.72;3.42;;;25.00;48.70;25.60;101133.00;;;;5013530;28;20646;-59
2023/06/07 08:40:17;;;;;;;3.75;3.45;;;25.00;48.50;25.60;101126.00;;;;5013189;28;20456;-59
2023/06/07 08:42:43;;;;;;;3.72;3.35;;;25.00;48.80;25.60;101117.00;;;;5012286;28;20172;-58
2023/06/07 08:45:10;;;;;;;3.60;3.30;;;25.00;48.70;25.60;101127.00;;;;4995747;28;20190;-58
2023/06/07 08:47:35;;;;;;;3.85;3.55;;;25.00;48.90;25.60;101110.00;;;;5013347;28;20176;-58
2023/06/07 08:50:01;;;;;;;5.18;3.20;;;25.00;48.80;25.60;101118.00;;;;4995629;28;20210;-58
2023/06/07 08:52:27;;;;;;;3.72;3.42;;;25.00;49.00;25.60;101128.00;;;;5012028;28;20185;-59
2023/06/07 08:54:58;;;;;;;3.92;3.63;;;25.00;48.90;25.60;101113.00;;;;5011798;28;20196;-59
2023/06/07 08:57:24;;;;;;;3.55;3.25;;;25.00;48.90;25.60;101119.00;;;;5012050;28;20187;-59
2023/06/07 08:59:50;;;;;;;3.85;3.50;;;25.00;49.00;25.60;101115.00;;;;5011940;28;20172;-60
2023/06/07 09:02:16;;;;;;;3.75;3.45;;;25.00;49.00;25.60;101114.00;;;;5012268;28;20207;-59
2023/06/07 09:04:42;;;;;;;3.80;3.50;;;25.00;49.00;25.60;101114.00;;;;5013335;28;20182;-60
2023/06/07 09:07:08;;;;;;;3.65;3.40;;;25.00;49.00;25.60;101116.00;;;;5013298;28;20182;-60
2023/06/07 09:09:43;;;;;;;3.72;3.42;;;24.90;49.60;25.60;101126.00;;;;5012880;28;20211;-59
2023/06/07 09:12:10;;;;;;;3.55;3.25;;;24.90;49.00;25.60;101132.00;;;;5011723;28;20182;-61
2023/06/07 09:14:36;;;;;;;3.90;3.60;;;24.90;49.00;25.60;101129.00;;;;5012361;28;20244;-60
2023/06/07 09:17:02;;;;;;;3.60;3.30;;;24.90;49.10;25.60;101116.00;;;;5012649;28;20175;-59
2023/06/07 09:19:39;;;;;;;3.58;3.28;;;24.90;49.00;25.60;101112.00;;;;5012528;28;20307;-59
2023/06/07 09:22:06;;;;;;;3.95;3.55;;;24.90;49.20;25.60;101105.00;;;;5013084;28;20191;-60
2023/06/07 09:24:33;;;;;;;3.55;3.25;;;24.90;49.20;25.60;101118.00;;;;5001646;28;20188;-59
2023/06/07 09:27:00;;;;;;;3.60;3.30;;;24.90;49.20;25.60;101117.00;;;;5019512;28;20187;-60
2023/06/07 09:29:28;;;;;;;3.53;3.22;;;24.90;49.20;25.30;101108.00;;;;5013573;28;20175;-59
2023/06/07 09:31:56;;;;;;;3.63;3.33;;;24.90;49.30;25.50;101112.00;;;;5012828;28;20222;-58
2023/06/07 09:34:28;;;;;;;3.88;3.58;;;24.90;49.30;25.50;101119.00;;;;5011207;28;20223;-60
2023/06/07 09:36:57;;;;;;;3.60;3.30;;;24.90;49.40;25.50;101116.00;;;;5012948;28;20676;-60
2023/06/07 09:39:29;;;;;;;3.85;3.50;;;24.90;49.40;25.50;101119.00;;;;5014264;28;20345;-59
2023/06/07 09:41:58;;;;;;;3.90;3.50;;;24.90;49.30;25.50;101117.00;;;;5018597;28;20187;-60
2023/06/07 09:44:28;;;;;;;3.97;3.67;;;24.90;49.40;25.50;101111.00;;;;5013744;28;20207;-59
2023/06/07 09:46:58;;;;;;;3.60;3.33;;;24.90;49.50;25.50;101113.00;;;;5012491;28;20187;-59
2023/06/07 09:49:34;;;;;;;3.83;3.50;;;24.90;49.50;25.50;101116.00;;;;5021671;28;20206;-60
2023/06/07 09:52:03;;;;;;;3.65;3.38;;;24.80;49.40;25.50;101115.00;;;;5022914;28;20195;-61
2023/06/07 09:54:39;;;;;;;4.57;3.55;;;24.80;49.50;25.50;101111.00;;;;5016841;28;20206;-59
2023/06/07 09:57:09;;;;;;;3.50;3.20;;;24.80;49.50;25.50;101113.00;;;;5012796;28;20180;-59
2023/06/07 09:59:37;;;;;;;3.70;3.35;;;24.80;49.50;25.50;101114.00;;;;5012577;28;20163;-61
2023/06/07 10:02:25;;;;;;;3.50;3.20;;;24.80;49.60;25.50;101117.00;;;;5012038;28;20191;-59
2023/06/07 10:04:53;;;;;;;3.90;3.60;;;24.80;49.60;25.50;101126.00;;;;5004326;28;20681;-59
2023/06/07 10:07:21;;;;;;;3.78;3.47;;;24.80;49.70;25.50;101127.00;;;;5012064;28;20186;-59
2023/06/07 10:09:53;;;;;;;3.80;3.50;;;24.80;49.60;25.50;101119.00;;;;5012173;28;20556;-58
2023/06/07 10:12:22;;;;;;;3.35;3.10;;;24.80;49.60;25.50;101114.00;;;;5010786;28;20617;-58
2023/06/07 10:14:48;;;;;;;3.85;3.55;;;24.80;49.50;25.50;101124.00;;;;5011525;28;20286;-58
2023/06/07 10:17:14;;;;;;;3.60;3.30;;;24.80;49.70;25.50;101114.00;;;;5010350;28;20254;-60
2023/06/07 10:19:52;;;;;;;3.90;3.60;;;24.80;49.70;25.50;101122.00;;;;5010241;28;20203;-60
2023/06/07 10:22:24;;;;;;;3.55;3.25;;;24.80;49.80;25.50;101110.00;;;;5010122;28;20199;-60
2023/06/07 10:25:07;;;;;;;3.53;3.22;;;24.70;49.80;25.50;101103.00;;;;4994221;28;20187;-59
2023/06/07 10:28:17;;;;;;;3.78;3.47;;;24.80;49.90;25.50;101100.00;;;;5010124;28;20733;-60
2023/06/07 10:30:53;;;;;;;3.78;3.47;;;24.70;49.80;25.40;101093.00;;;;4983755;28;20608;-59
2023/06/07 10:33:19;;;;;;;4.20;3.80;;;24.80;50.10;25.40;101091.00;;;;5011353;28;20183;-58
2023/06/07 10:35:46;;;;;;;3.90;3.60;;;24.80;50.10;25.40;101093.00;;;;4993858;28;20199;-59
2023/06/07 10:38:12;;;;;;;3.95;3.60;;;24.80;50.20;25.40;101069.00;;;;4993964;28;20172;-59
2023/06/07 10:40:38;;;;;;;3.90;3.60;;;24.80;50.30;25.40;101080.00;;;;4993641;28;20195;-59
2023/06/07 10:43:04;;;;;;;4.38;3.97;;;24.80;50.30;25.50;101079.00;;;;5010089;28;20238;-58
2023/06/07 10:45:30;;;;;;;4.32;3.92;;;24.80;50.40;25.50;101076.00;;;;5010063;28;20179;-61
2023/06/07 10:47:56;;;;;;;4.10;3.80;;;24.80;50.50;25.50;101078.00;;;;5010805;28;20176;-57